createdAt,value
2022-10-24T00:02:46.906Z,14.50
2022-10-24T00:05:35.535Z,14.50
2022-10-24T00:08:24.084Z,14.50
2022-10-24T00:11:14.782Z,14.50
2022-10-24T00:14:03.798Z,14.50
2022-10-24T00:16:52.416Z,14.60
2022-10-24T00:19:42.429Z,14.60
2022-10-24T00:22:31.004Z,14.60
2022-10-24T00:25:19.728Z,14.60
2022-10-24T00:28:08.336Z,14.70
2022-10-24T00:30:56.890Z,14.70
2022-10-24T00:33:46.080Z,14.70
2022-10-24T00:36:36.181Z,14.70
2022-10-24T00:39:24.771Z,14.70
2022-10-24T00:42:14.248Z,14.70
2022-10-24T00:45:22.979Z,14.70
2022-10-24T00:48:16.313Z,14.70
2022-10-24T00:51:07.924Z,14.80
2022-10-24T00:54:00.505Z,14.80
2022-10-24T00:57:00.616Z,14.80
2022-10-24T00:59:54.260Z,14.80
2022-10-24T01:02:43.711Z,14.70
2022-10-24T01:05:38.085Z,14.70
2022-10-24T01:08:33.589Z,14.70
2022-10-24T01:11:39.050Z,14.70
2022-10-24T01:14:39.401Z,14.70
2022-10-24T01:17:36.705Z,14.70
2022-10-24T01:20:43.421Z,14.80
2022-10-24T01:23:52.431Z,14.80
2022-10-24T01:30:11.224Z,14.70
2022-10-24T01:33:03.472Z,14.70
2022-10-24T01:35:57.561Z,14.70
2022-10-24T01:38:50.781Z,14.70
2022-10-24T01:41:42.833Z,14.60
2022-10-24T01:44:34.756Z,14.60
2022-10-24T01:47:29.015Z,14.60
2022-10-24T01:50:19.191Z,14.50
2022-10-24T01:53:09.854Z,14.50
2022-10-24T01:55:58.840Z,14.50
2022-10-24T01:58:47.453Z,14.50
2022-10-24T02:01:38.325Z,14.50
2022-10-24T02:04:31.385Z,14.50
2022-10-24T02:07:22.912Z,14.50
2022-10-24T02:10:16.114Z,14.60
2022-10-24T02:13:10.290Z,14.60
2022-10-24T02:16:01.344Z,14.60
2022-10-24T02:18:53.029Z,14.70
2022-10-24T02:21:48.645Z,14.70
2022-10-24T02:24:43.373Z,14.80
2022-10-24T02:27:36.589Z,14.70
2022-10-24T02:30:26.693Z,14.70
2022-10-24T02:33:17.674Z,14.70
2022-10-24T02:36:08.269Z,14.60
2022-10-24T02:38:59.119Z,14.60
2022-10-24T02:41:49.247Z,14.60
2022-10-24T02:44:38.271Z,14.70
2022-10-24T02:47:28.398Z,14.60
2022-10-24T02:50:17.051Z,14.60
2022-10-24T02:53:06.326Z,14.70
2022-10-24T02:55:56.322Z,14.70
2022-10-24T02:58:45.058Z,14.70
2022-10-24T03:01:33.640Z,14.70
2022-10-24T03:04:22.229Z,14.70
2022-10-24T03:07:10.796Z,14.70
2022-10-24T03:09:59.357Z,14.70
2022-10-24T03:12:49.399Z,14.70
2022-10-24T03:15:37.999Z,14.70
2022-10-24T03:18:26.631Z,14.80
2022-10-24T03:21:15.157Z,14.80
2022-10-24T03:24:04.166Z,14.80
2022-10-24T03:26:53.144Z,14.80
2022-10-24T03:29:43.135Z,14.80
2022-10-24T03:32:31.702Z,14.70
2022-10-24T03:35:20.678Z,14.60
2022-10-24T03:38:09.367Z,14.70
2022-10-24T03:40:58.081Z,14.70
2022-10-24T03:43:46.654Z,14.70
2022-10-24T03:46:36.626Z,14.60
2022-10-24T03:49:25.205Z,14.60
2022-10-24T03:52:14.087Z,14.70
2022-10-24T03:55:02.809Z,14.60
2022-10-24T03:57:51.394Z,14.60
2022-10-24T04:00:40.762Z,14.60
2022-10-24T04:03:30.898Z,14.60
2022-10-24T04:06:19.442Z,14.60
2022-10-24T04:09:08.327Z,14.60
2022-10-24T04:11:56.852Z,14.50
2022-10-24T04:14:45.423Z,14.60
2022-10-24T04:17:33.989Z,14.60
2022-10-24T04:20:23.976Z,14.60
2022-10-24T04:23:12.522Z,14.60
2022-10-24T04:26:01.065Z,14.50
2022-10-24T04:28:49.704Z,14.50
2022-10-24T04:31:38.305Z,14.50
2022-10-24T04:34:26.867Z,14.40
2022-10-24T04:37:16.812Z,14.50
2022-10-24T04:40:06.243Z,14.50
2022-10-24T04:42:54.824Z,14.50
2022-10-24T04:45:43.412Z,14.50
2022-10-24T04:48:32.047Z,14.50
2022-10-24T04:51:22.455Z,14.50
2022-10-24T04:54:12.765Z,14.50
2022-10-24T04:57:01.367Z,14.50
2022-10-24T04:59:49.940Z,14.40
2022-10-24T05:02:38.519Z,14.40
2022-10-24T05:05:27.178Z,14.30
2022-10-24T05:08:16.370Z,14.30
2022-10-24T05:11:06.571Z,14.30
2022-10-24T05:13:55.179Z,14.30
2022-10-24T05:16:43.747Z,14.20
2022-10-24T05:19:32.363Z,14.20
2022-10-24T05:22:20.896Z,14.20
2022-10-24T05:25:10.121Z,14.20
2022-10-24T05:28:00.510Z,14.20
2022-10-24T05:30:49.093Z,14.20
2022-10-24T05:33:37.677Z,14.20
2022-10-24T05:36:26.515Z,14.20
2022-10-24T05:39:15.127Z,14.20
2022-10-24T05:42:03.971Z,14.20
2022-10-24T05:44:53.986Z,14.20
2022-10-24T05:47:42.812Z,14.20
2022-10-24T05:50:31.644Z,14.10
2022-10-24T05:53:20.178Z,14.10
2022-10-24T05:56:08.818Z,14.10
2022-10-24T05:58:58.239Z,14.10
2022-10-24T06:01:48.449Z,14.10
2022-10-24T06:04:37.081Z,14.10
2022-10-24T06:07:25.657Z,14.20
2022-10-24T06:10:15.363Z,14.10
2022-10-24T06:13:03.988Z,14.10
2022-10-24T06:15:52.539Z,14.20
2022-10-24T06:18:42.860Z,14.10
2022-10-24T06:21:31.448Z,14.10
2022-10-24T06:24:20.083Z,14.10
2022-10-24T06:27:08.701Z,14.20
2022-10-24T06:29:57.271Z,14.30
2022-10-24T06:32:46.151Z,14.20
2022-10-24T06:35:36.331Z,14.20
2022-10-24T06:38:24.839Z,14.20
2022-10-24T06:41:17.080Z,14.20
2022-10-24T06:44:10.728Z,14.20
2022-10-24T06:46:59.620Z,14.20
2022-10-24T06:49:48.186Z,14.20
2022-10-24T06:52:39.177Z,14.20
2022-10-24T06:55:27.796Z,14.30
2022-10-24T06:58:16.324Z,14.30
2022-10-24T07:01:09.272Z,14.30
2022-10-24T07:03:57.895Z,14.40
2022-10-24T07:06:46.514Z,14.40
2022-10-24T07:09:36.499Z,14.50
2022-10-24T07:12:25.994Z,14.50
2022-10-24T07:15:14.640Z,14.50
2022-10-24T07:18:03.172Z,14.50
2022-10-24T07:20:51.736Z,14.50
2022-10-24T07:23:40.304Z,14.50
2022-10-24T07:26:31.139Z,14.50
2022-10-24T07:29:20.249Z,14.60
2022-10-24T07:32:08.778Z,14.60
2022-10-24T07:34:57.328Z,14.70
2022-10-24T07:37:45.990Z,14.70
2022-10-24T07:40:34.789Z,14.70
2022-10-24T07:43:25.092Z,14.80
2022-10-24T07:46:15.237Z,14.90
2022-10-24T07:49:03.796Z,14.80
2022-10-24T07:51:52.402Z,14.90
2022-10-24T07:54:40.967Z,14.90
2022-10-24T07:57:29.657Z,15.00
2022-10-24T08:00:21.733Z,15.00
2022-10-24T08:03:10.328Z,15.00
2022-10-24T08:05:58.950Z,15.00
2022-10-24T08:08:47.568Z,15.10
2022-10-24T08:11:36.164Z,15.10
2022-10-24T08:14:24.747Z,15.10
2022-10-24T08:17:14.881Z,15.20
2022-10-24T08:20:04.241Z,15.20
2022-10-24T08:22:53.023Z,15.10
2022-10-24T08:25:42.421Z,15.10
2022-10-24T08:28:30.964Z,15.20
2022-10-24T08:31:21.637Z,15.20
2022-10-24T08:34:14.615Z,15.30
2022-10-24T08:37:03.224Z,15.30
2022-10-24T08:39:55.677Z,15.40
2022-10-24T08:42:45.462Z,15.40
2022-10-24T08:45:40.253Z,15.60
2022-10-24T08:48:33.394Z,15.70
2022-10-24T08:51:31.064Z,15.90
2022-10-24T08:54:24.004Z,15.90
2022-10-24T08:57:20.933Z,15.90
2022-10-24T09:00:27.376Z,15.80
2022-10-24T09:03:31.273Z,15.90
2022-10-24T09:06:28.664Z,15.90
2022-10-24T09:09:22.506Z,16.00
2022-10-24T09:12:14.651Z,16.00
2022-10-24T09:15:03.298Z,16.10
2022-10-24T09:17:52.481Z,16.20
2022-10-24T09:20:41.290Z,16.30
2022-10-24T09:23:35.142Z,16.40
2022-10-24T09:26:27.064Z,16.50
2022-10-24T09:29:15.608Z,16.40
2022-10-24T09:32:04.946Z,16.50
2022-10-24T09:34:53.785Z,16.60
2022-10-24T09:37:47.349Z,16.80
2022-10-24T09:40:39.309Z,16.90
2022-10-24T09:43:34.732Z,16.90
2022-10-24T09:46:25.256Z,17.00
2022-10-24T09:49:23.410Z,17.00
2022-10-24T09:52:21.826Z,17.10
2022-10-24T09:55:20.096Z,17.00
2022-10-24T09:58:20.928Z,17.10
2022-10-24T10:01:20.840Z,17.50
2022-10-24T10:04:19.258Z,17.70
2022-10-24T10:07:11.765Z,17.90
2022-10-24T10:10:03.636Z,18.10
2022-10-24T10:12:59.006Z,17.80
2022-10-24T10:15:51.506Z,17.50
2022-10-24T10:18:46.656Z,17.40
2022-10-24T10:21:54.401Z,17.40
2022-10-24T10:24:46.136Z,17.20
2022-10-24T10:27:37.708Z,17.10
2022-10-24T10:30:26.796Z,17.10
2022-10-24T10:33:25.142Z,17.20
2022-10-24T10:36:17.722Z,17.60
2022-10-24T10:39:22.072Z,17.80
2022-10-24T10:42:16.930Z,17.90
2022-10-24T10:45:17.342Z,17.90
2022-10-24T10:48:25.733Z,17.90
2022-10-24T10:51:23.316Z,18.10
2022-10-24T10:54:33.495Z,18.30
2022-10-24T10:57:28.884Z,18.50
2022-10-24T11:00:21.114Z,18.60
2022-10-24T11:03:22.822Z,18.70
2022-10-24T11:06:27.156Z,18.60
2022-10-24T11:09:32.693Z,18.50
2022-10-24T11:12:25.493Z,18.50
2022-10-24T11:15:20.499Z,18.40
2022-10-24T11:18:13.896Z,18.40
2022-10-24T11:21:07.642Z,18.50
2022-10-24T11:24:01.578Z,18.30
2022-10-24T11:26:57.039Z,18.00
2022-10-24T11:29:54.807Z,17.70
2022-10-24T11:32:50.924Z,17.40
2022-10-24T11:35:53.599Z,17.10
2022-10-24T11:38:49.043Z,16.90
2022-10-24T11:41:46.530Z,16.90
2022-10-24T11:44:42.240Z,16.80
2022-10-24T11:47:58.384Z,16.80
2022-10-24T11:50:51.044Z,16.70
2022-10-24T11:53:54.558Z,16.70
2022-10-24T11:56:48.554Z,16.90
2022-10-24T11:59:40.951Z,17.20
2022-10-24T12:03:08.506Z,17.50
2022-10-24T12:06:18.160Z,17.50
2022-10-24T12:09:33.650Z,17.50
2022-10-24T12:12:40.151Z,17.50
2022-10-24T12:15:41.457Z,18.00
2022-10-24T12:18:33.986Z,18.30
2022-10-24T12:21:26.690Z,18.30
2022-10-24T12:24:27.580Z,18.10
2022-10-24T12:27:31.606Z,18.10
2022-10-24T12:30:24.232Z,18.30
2022-10-24T12:33:25.934Z,18.20
2022-10-24T12:36:14.757Z,18.10
2022-10-24T12:39:05.725Z,18.10
2022-10-24T12:41:55.988Z,18.10
2022-10-24T12:44:47.696Z,18.00
2022-10-24T12:47:38.655Z,18.10
2022-10-24T12:50:57.428Z,18.10
2022-10-24T12:54:18.173Z,18.00
2022-10-24T12:57:27.767Z,18.00
2022-10-24T13:00:26.766Z,17.80
2022-10-24T13:03:22.516Z,17.60
2022-10-24T13:06:19.667Z,17.50
2022-10-24T13:09:23.805Z,17.30
2022-10-24T13:12:32.442Z,17.30
2022-10-24T13:15:32.609Z,17.10
2022-10-24T13:18:36.775Z,17.20
2022-10-24T13:21:31.144Z,17.30
2022-10-24T13:24:37.144Z,17.40
2022-10-24T13:27:32.310Z,17.40
2022-10-24T13:30:28.006Z,17.70
2022-10-24T13:33:41.772Z,17.90
2022-10-24T13:36:33.742Z,18.30
2022-10-24T13:39:27.856Z,18.60
2022-10-24T13:42:29.413Z,18.30
2022-10-24T13:45:27.380Z,18.10
2022-10-24T13:48:20.769Z,17.80
2022-10-24T13:51:18.505Z,17.70
2022-10-24T13:54:12.348Z,17.70
2022-10-24T13:57:02.276Z,17.80
2022-10-24T13:59:57.124Z,17.70
2022-10-24T14:02:46.710Z,17.70
2022-10-24T14:05:41.562Z,17.60
2022-10-24T14:08:33.471Z,17.50
2022-10-24T14:11:26.319Z,17.40
2022-10-24T14:14:29.395Z,17.40
2022-10-24T14:17:26.051Z,17.50
2022-10-24T14:20:23.956Z,17.30
2022-10-24T14:23:31.077Z,17.10
2022-10-24T14:26:21.751Z,16.90
2022-10-24T14:29:22.787Z,16.80
2022-10-24T14:32:16.583Z,16.70
2022-10-24T14:35:05.683Z,16.70
2022-10-24T14:37:54.292Z,16.80
2022-10-24T14:40:45.598Z,16.70
2022-10-24T14:43:34.683Z,16.70
2022-10-24T14:46:34.863Z,16.70
2022-10-24T14:49:30.786Z,16.60
2022-10-24T14:52:24.169Z,16.60
2022-10-24T14:55:21.861Z,16.50
2022-10-24T14:58:23.733Z,16.40
2022-10-24T15:01:19.082Z,16.30
2022-10-24T15:04:07.801Z,16.30
2022-10-24T15:06:57.775Z,16.30
2022-10-24T15:09:54.120Z,16.30
2022-10-24T15:12:48.124Z,16.30
2022-10-24T15:15:50.062Z,16.30
2022-10-24T15:18:44.176Z,16.40
2022-10-24T15:21:36.575Z,16.30
2022-10-24T15:24:27.502Z,16.30
2022-10-24T15:27:27.834Z,16.30
2022-10-24T15:30:18.086Z,16.20
2022-10-24T15:33:08.168Z,16.10
2022-10-24T15:35:56.706Z,16.10
2022-10-24T15:38:45.317Z,16.10
2022-10-24T15:41:34.276Z,16.00
2022-10-24T15:44:25.745Z,16.00
2022-10-24T15:47:14.299Z,16.00
2022-10-24T15:50:04.611Z,15.90
2022-10-24T15:52:56.080Z,15.80
2022-10-24T15:55:44.736Z,15.80
2022-10-24T15:58:33.312Z,15.80
2022-10-24T16:01:27.256Z,15.80
2022-10-24T16:04:16.295Z,15.80
2022-10-24T16:07:06.665Z,15.80
2022-10-24T16:09:55.493Z,15.80
2022-10-24T16:12:44.380Z,15.70
2022-10-24T16:15:35.786Z,15.60
2022-10-24T16:18:24.388Z,15.60
2022-10-24T16:21:17.174Z,15.50
2022-10-24T16:24:08.129Z,15.40
2022-10-24T16:26:56.845Z,15.50
2022-10-24T16:29:45.390Z,15.50
2022-10-24T16:32:33.971Z,15.40
2022-10-24T16:35:24.908Z,15.20
2022-10-24T16:38:13.460Z,15.10
2022-10-24T16:41:03.501Z,14.90
2022-10-24T16:43:52.167Z,14.80
2022-10-24T16:46:40.981Z,14.70
2022-10-24T16:49:31.217Z,14.60
2022-10-24T16:52:19.766Z,14.50
2022-10-24T16:55:08.816Z,14.40
2022-10-24T16:57:59.280Z,14.40
2022-10-24T17:00:48.599Z,14.30
2022-10-24T17:03:37.981Z,14.30
2022-10-24T17:06:26.532Z,14.30
2022-10-24T17:09:15.130Z,14.30
2022-10-24T17:12:03.731Z,14.30
2022-10-24T17:14:54.481Z,14.30
2022-10-24T17:17:43.160Z,14.30
2022-10-24T17:20:31.891Z,14.20
2022-10-24T17:23:22.942Z,14.20
2022-10-24T17:26:16.908Z,14.10
2022-10-24T17:29:06.086Z,14.20
2022-10-24T17:31:56.608Z,14.20
2022-10-24T17:34:50.097Z,14.20
2022-10-24T17:37:47.854Z,14.30
2022-10-24T17:40:43.265Z,14.30
2022-10-24T17:43:32.244Z,14.40
2022-10-24T17:46:21.427Z,14.40
2022-10-24T17:49:16.464Z,14.40
2022-10-24T17:52:07.918Z,14.40
2022-10-24T17:54:56.487Z,14.30
2022-10-24T17:57:45.368Z,14.40
2022-10-24T18:00:34.545Z,14.40
2022-10-24T18:03:23.119Z,14.40
2022-10-24T18:06:13.716Z,14.40
2022-10-24T18:09:02.344Z,14.40
2022-10-24T18:11:50.937Z,14.40
2022-10-24T18:14:39.478Z,14.40
2022-10-24T18:17:28.444Z,14.40
2022-10-24T18:20:18.582Z,14.30
2022-10-24T18:23:08.541Z,14.30
2022-10-24T18:25:57.113Z,14.20
2022-10-24T18:28:47.167Z,14.10
2022-10-24T18:31:36.363Z,14.10
2022-10-24T18:34:24.971Z,14.00
2022-10-24T18:37:13.844Z,13.90
2022-10-24T18:40:05.007Z,13.90
2022-10-24T18:42:58.765Z,13.80
2022-10-24T18:45:50.121Z,13.80
2022-10-24T18:48:39.180Z,13.80
2022-10-24T18:51:34.635Z,13.80
2022-10-24T18:54:23.605Z,13.80
2022-10-24T18:57:22.882Z,13.80
2022-10-24T19:00:15.570Z,13.80
2022-10-24T19:03:16.473Z,13.80
2022-10-24T19:06:18.400Z,13.80
2022-10-24T19:09:16.756Z,13.80
2022-10-24T19:12:07.182Z,13.90
2022-10-24T19:14:57.581Z,13.90
2022-10-24T19:17:47.751Z,13.90
2022-10-24T19:20:36.490Z,13.80
2022-10-24T19:23:25.168Z,13.70
2022-10-24T19:26:13.928Z,13.70
2022-10-24T19:29:04.923Z,13.60
2022-10-24T19:31:55.861Z,13.60
2022-10-24T19:34:44.418Z,13.70
2022-10-24T19:37:33.037Z,13.60
2022-10-24T19:40:21.608Z,13.30
2022-10-24T19:43:10.179Z,13.20
2022-10-24T19:46:14.915Z,13.00
2022-10-24T19:49:09.085Z,12.90
2022-10-24T19:51:59.669Z,12.70
2022-10-24T19:54:48.208Z,12.70
2022-10-24T19:57:37.994Z,12.60
2022-10-24T20:00:26.951Z,12.50
2022-10-24T20:03:16.167Z,12.50
2022-10-24T20:06:06.912Z,12.50
2022-10-24T20:08:55.789Z,12.50
2022-10-24T20:11:44.337Z,12.50
2022-10-24T20:14:33.184Z,12.40
2022-10-24T20:17:21.787Z,12.40
2022-10-24T20:20:11.747Z,12.40
2022-10-24T20:23:01.768Z,12.40
2022-10-24T20:25:51.374Z,12.40
2022-10-24T20:28:44.007Z,12.50
2022-10-24T20:31:34.523Z,12.40
2022-10-24T20:34:23.378Z,12.50
2022-10-24T20:37:11.929Z,12.40
2022-10-24T20:40:01.897Z,12.40
2022-10-24T20:42:52.332Z,12.50
2022-10-24T20:45:41.316Z,12.50
2022-10-24T20:48:29.883Z,12.50
2022-10-24T20:51:20.124Z,12.50
2022-10-24T20:54:09.784Z,12.50
2022-10-24T20:56:59.717Z,12.50
2022-10-24T20:59:48.289Z,12.50
2022-10-24T21:02:36.960Z,12.50
2022-10-24T21:05:27.380Z,12.50
2022-10-24T21:08:15.932Z,12.50
2022-10-24T21:11:07.803Z,12.50
2022-10-24T21:13:59.229Z,12.60
2022-10-24T21:16:48.153Z,12.60
2022-10-24T21:19:36.727Z,12.50
2022-10-24T21:22:25.301Z,12.40
2022-10-24T21:25:13.876Z,12.40
2022-10-24T21:28:02.456Z,12.40
2022-10-24T21:30:52.401Z,12.40
2022-10-24T21:33:42.489Z,12.40
2022-10-24T21:36:31.008Z,12.40
2022-10-24T21:39:19.772Z,12.40
2022-10-24T21:42:08.287Z,12.40
2022-10-24T21:44:56.851Z,12.40
2022-10-24T21:47:46.780Z,12.40
2022-10-24T21:50:35.424Z,12.40
2022-10-24T21:53:24.026Z,12.40
2022-10-24T21:56:14.953Z,12.40
2022-10-24T21:59:05.588Z,12.40
2022-10-24T22:01:54.362Z,12.30
2022-10-24T22:04:44.395Z,12.30
2022-10-24T22:07:32.999Z,12.30
2022-10-24T22:10:21.611Z,12.30
2022-10-24T22:13:10.136Z,12.30
2022-10-24T22:15:58.983Z,12.30
2022-10-24T22:18:47.951Z,12.20
2022-10-24T22:21:39.700Z,12.10
2022-10-24T22:24:28.309Z,12.10
2022-10-24T22:27:16.860Z,12.10
2022-10-24T22:30:06.225Z,12.00
2022-10-24T22:32:55.151Z,12.00
2022-10-24T22:35:44.251Z,12.00
2022-10-24T22:38:34.871Z,12.10
2022-10-24T22:41:24.514Z,12.10
2022-10-24T22:44:15.574Z,12.20
2022-10-24T22:47:36.345Z,12.30
2022-10-24T22:50:46.609Z,12.30
2022-10-24T22:53:37.304Z,12.40
2022-10-24T22:56:33.145Z,12.50
2022-10-24T22:59:22.315Z,12.60
2022-10-24T23:02:29.102Z,12.60
2022-10-24T23:05:30.164Z,12.60
2022-10-24T23:08:32.669Z,12.50
2022-10-24T23:11:23.314Z,12.60
2022-10-24T23:14:13.020Z,12.60
2022-10-24T23:17:02.368Z,12.60
2022-10-24T23:19:51.825Z,12.60
2022-10-24T23:22:44.182Z,12.60
2022-10-24T23:25:33.421Z,12.70
2022-10-24T23:28:33.938Z,12.70
2022-10-24T23:31:23.162Z,12.70
2022-10-24T23:34:12.545Z,12.70
2022-10-24T23:37:03.782Z,12.70
2022-10-24T23:39:52.867Z,12.60
2022-10-24T23:42:41.813Z,12.60
2022-10-24T23:45:36.589Z,12.60
2022-10-24T23:48:38.843Z,12.50
2022-10-24T23:51:32.173Z,12.50
2022-10-24T23:54:26.527Z,12.60
2022-10-24T23:57:17.759Z,12.60
